Terminal Aerodrome Forecast
Issued by NWS Charleston, WV

Home | Current Version | Previous Version | Text Only | Print | Product List | Glossary On
Versions: 1 2 3 4 5 6 7 8 9 10 11 12 13 14 15 16 17 18 19 20 21 22 23 24 25
283
FTUS41 KRLX 231946 AAC
TAFBKW
TAF AMD
KBKW 231946Z 2320/2418 24008G14KT P6SM BKN060
     FM232300 24006KT P6SM SCT080
     FM240400 00000KT P6SM BKN080
     FM240600 00000KT 5SM BR BKN060
     FM241600 21006KT 5SM SHRA OVC010=

USA.gov is the U.S. government's official web portal to all federal, state and local government web resources and services.